Latest Weather Observations for Emerald

IDQ60801

Issued at 5:35 pm EST Friday 1 August 2014 (issued every 30 minutes, with the page automatically refreshed every 10 minutes)

About weather observations | Map of weather stations | Latest weather observations for QLD | Other Formats
Station Details ID: 035264 Name: EMERALD AIRPORT Lat: -23.57 Lon: 148.18 Height: 189.4 m
Data from the previous 72 hours. | See also: Recent months at Emerald
Date/Time
EST
Temp
°C
App
Temp
°C
Dew
Point
Rel
Hum
%
Delta-T
°C
Wind Press
QNH
hPa
Press
MSL
hPa
Rain
since 9 am
mm
Dir
 
Spd
km/h
Gust
km/h
Spd
kts
Gust
kts
01/05:30pm 25.1 24.3 6.3 30 9.8 W 0 0 0 0 1015.0 - 0.0
01/05:00pm 25.9 23.4 6.5 29 10.2 S 9 19 5 10 1014.8 - 0.0
01/04:30pm 26.3 24.1 6.3 28 10.5 S 7 9 4 5 1014.5 - 0.0
01/04:00pm 26.8 24.7 6.8 28 10.6 S 7 11 4 6 1014.4 - 0.0
01/03:30pm 26.8 24.0 6.8 28 10.6 WSW 11 17 6 9 1014.6 - 0.0
01/03:00pm 26.8 22.9 7.3 29 10.4 WSW 17 22 9 12 1014.6 1014.2 0.0
01/02:30pm 27.4 25.6 7.8 29 10.6 S 7 15 4 8 1014.9 - 0.0
01/02:00pm 26.5 22.5 6.5 28 10.6 N 17 24 9 13 1015.3 - 0.0
01/01:30pm 26.1 23.9 7.7 31 9.9 WNW 9 17 5 9 1015.7 - 0.0
01/01:00pm 26.0 23.1 8.0 32 9.7 N 13 20 7 11 1016.2 - 0.0
01/12:30pm 26.1 23.2 8.1 32 9.7 N 13 24 7 13 1016.8 - 0.0
01/12:00pm 25.8 23.3 9.6 36 9.0 NNW 13 20 7 11 1017.4 1017.1 0.0
01/11:30am 24.9 21.5 10.4 40 8.1 N 19 24 10 13 1017.8 - 0.0
01/11:00am 24.0 21.5 13.5 52 6.2 NNW 19 26 10 14 1018.2 - 0.0
01/10:30am 22.0 20.3 13.6 59 4.9 NNW 15 22 8 12 1018.7 - 0.0
01/10:00am 20.3 17.7 13.3 64 4.0 NNW 19 26 10 14 1019.1 - 0.0
01/09:30am 19.1 17.3 13.3 69 3.3 NNW 15 20 8 11 1019.4 - 0.0
01/09:00am 17.7 16.7 12.4 71 3.0 N 9 11 5 6 1019.5 1019.1 0.0
01/08:30am 16.1 15.0 11.9 76 2.3 NNE 9 11 5 6 1019.3 - 0.0
01/08:00am 14.3 12.8 11.8 85 1.4 NNE 11 13 6 7 1018.9 - 0.0
01/07:30am 12.3 11.5 10.9 91 0.7 N 6 9 3 5 1018.6 - 0.0
01/07:00am 10.8 10.7 9.6 92 0.6 CALM 0 0 0 0 1018.4 - 0.0
01/06:30am 10.4 10.2 9.0 91 0.7 ENE 0 0 0 0 1018.1 - 0.0
01/06:00am 10.7 10.5 9.1 90 0.8 ENE 0 0 0 0 1017.6 1017.3 0.0
01/05:30am 10.6 9.4 9.4 92 0.6 ENE 6 9 3 5 1017.5 - 0.0
01/05:00am 11.2 9.6 10.1 93 0.6 ENE 9 11 5 6 1017.2 - 0.0
01/04:30am 11.0 9.2 9.6 91 0.7 ESE 9 11 5 6 1017.1 - 0.0
01/04:00am 11.2 9.8 9.5 89 0.9 SE 7 9 4 5 1017.2 - 0.0
01/03:30am 11.0 9.4 8.9 87 1.1 SE 7 9 4 5 1017.3 - 0.0
01/03:00am 11.6 11.3 8.6 82 1.5 CALM 0 0 0 0 1017.4 1017.1 0.0
01/02:30am 12.8 12.7 10.7 87 1.1 E 2 6 1 3 1017.6 - 0.0
01/02:00am 12.9 13.0 10.3 84 1.4 CALM 0 0 0 0 1017.6 - 0.0
01/01:30am 13.2 13.2 11.1 87 1.1 E 2 7 1 4 1017.7 - 0.0
01/01:00am 11.9 9.1 8.7 81 1.6 E 13 15 7 8 1017.9 - 0.0
01/12:30am 12.5 12.2 8.8 78 1.9 E 0 9 0 5 1018.0 - 0.0
01/12:00am 13.8 13.4 8.4 70 2.7 NW 0 0 0 0 1018.2 1017.9 0.0
 
Date/Time
EST
Temp
°C
App
Temp
°C
Dew
Point
Rel
Hum
%
Delta-T
°C
Wind Press
QNH
hPa
Press
MSL
hPa
Rain
since 9 am
mm
Dir
 
Spd
km/h
Gust
km/h
Spd
kts
Gust
kts
31/11:30pm 14.8 14.6 9.0 68 3.0 CALM 0 0 0 0 1018.4 - 0.0
31/11:00pm 15.1 14.3 9.5 69 2.9 NNE 4 6 2 3 1018.3 - 0.0
31/10:30pm 15.9 15.5 9.8 67 3.2 NNE 2 6 1 3 1018.3 - 0.0
31/10:00pm 16.3 15.1 9.5 64 3.6 NE 6 7 3 4 1018.3 - 0.0
31/09:30pm 17.2 15.9 9.9 62 3.9 NNE 7 9 4 5 1018.1 - 0.0
31/09:00pm 16.3 14.7 7.8 57 4.3 E 6 7 3 4 1017.9 1017.8 0.0
31/08:30pm 18.7 16.8 8.9 53 5.2 NNE 9 11 5 6 1017.6 - 0.0
31/08:00pm 18.7 18.0 8.7 52 5.2 NNE 2 7 1 4 1017.3 - 0.0
31/07:30pm 19.8 18.1 8.2 47 6.1 NNE 7 11 4 6 1017.0 - 0.0
31/07:00pm 20.8 18.5 7.4 42 6.9 NNE 9 13 5 7 1016.5 - 0.0
31/06:30pm 22.6 20.6 7.2 37 8.0 N 7 11 4 6 1016.0 - 0.0
31/06:00pm 23.1 21.0 6.8 35 8.5 NNE 7 9 4 5 1015.8 1015.6 0.0
31/05:30pm 24.5 22.4 6.7 32 9.3 NNE 7 13 4 7 1015.7 - 0.0
31/05:00pm 25.7 23.1 6.3 29 10.2 N 9 13 5 7 1015.7 - 0.0
31/04:30pm 26.1 24.4 7.7 31 9.9 N 6 13 3 7 1015.6 - 0.0
31/04:00pm 25.9 23.2 7.5 31 9.8 E 11 24 6 13 1015.8 - 0.0
31/03:30pm 26.0 21.7 7.1 30 10.0 N 19 24 10 13 1016.0 - 0.0
31/03:00pm 25.6 23.0 6.3 29 10.1 NW 9 19 5 10 1016.3 1016.2 0.0
31/02:30pm 25.4 22.5 6.6 30 9.9 N 11 20 6 11 1016.6 - 0.0
31/02:00pm 25.2 21.6 6.9 31 9.6 NNW 15 24 8 13 1017.0 - 0.0
31/01:30pm 25.0 22.1 8.1 34 9.1 N 13 20 7 11 1017.6 - 0.0
31/01:00pm 24.7 22.2 8.2 35 8.9 NNE 11 15 6 8 1018.3 - 0.0
31/12:30pm 23.9 21.0 8.3 37 8.4 NNW 13 24 7 13 1019.0 - 0.0
31/12:00pm 24.2 22.0 9.4 39 8.1 NNW 11 20 6 11 1020.0 1019.8 0.0
31/11:30am 22.7 21.5 10.2 45 6.9 NNW 7 13 4 7 1020.6 - 0.0
31/11:00am 21.8 19.9 10.6 49 6.2 NNE 11 17 6 9 1021.2 - 0.0
31/10:30am 20.5 19.2 11.4 56 5.1 NW 9 17 5 9 1021.7 - 0.0
31/10:00am 19.9 18.6 11.1 57 4.9 N 9 15 5 8 1021.9 - 0.0
31/09:30am 18.7 17.6 10.5 59 4.4 N 7 13 4 7 1022.1 - 0.0
31/09:00am 17.8 16.6 10.4 62 4.0 ENE 7 11 4 6 1022.0 1021.9 0.0
31/08:30am 15.9 13.8 9.8 67 3.2 E 11 13 6 7 1021.9 - 0.0
31/08:00am 13.8 11.9 9.0 73 2.5 ESE 9 13 5 7 1021.8 - 0.0
31/07:30am 11.1 9.2 6.8 75 2.1 ESE 6 7 3 4 1021.4 - 0.0
31/07:00am 9.3 7.0 5.5 77 1.7 SSE 7 7 4 4 1021.1 - 0.0
31/06:30am 9.0 6.6 5.2 77 1.7 SSE 7 9 4 5 1020.9 - 0.0
31/06:00am 9.1 6.3 5.1 76 1.8 S 9 9 5 5 1020.6 1020.5 0.0
31/05:30am 9.3 6.9 5.3 76 1.8 S 7 9 4 5 1020.4 - 0.0
31/05:00am 9.6 7.2 5.4 75 1.9 S 7 7 4 4 1020.2 - 0.0
31/04:30am 9.8 7.1 5.8 76 1.9 S 9 11 5 6 1020.1 - 0.0
31/04:00am 10.2 9.2 5.8 74 2.0 CALM 0 0 0 0 1019.9 - 0.0
31/03:30am 9.9 8.8 4.9 71 2.3 CALM 0 0 0 0 1020.0 - 0.0
31/03:00am 12.2 10.0 6.3 67 2.8 NE 7 9 4 5 1020.0 1019.8 0.0
31/02:30am 12.6 10.5 6.0 64 3.1 NNE 6 7 3 4 1020.0 - 0.0
31/02:00am 12.9 10.7 6.3 64 3.2 NNE 7 9 4 5 1020.3 - 0.0
31/01:30am 12.6 10.3 5.8 63 3.2 ENE 7 9 4 5 1020.4 - 0.0
31/01:00am 12.5 10.1 5.2 61 3.4 ENE 7 9 4 5 1020.6 - 0.0
31/12:30am 12.5 10.0 5.0 60 3.5 ENE 7 9 4 5 1020.7 - 0.0
31/12:00am 14.1 11.6 4.9 54 4.3 NE 7 9 4 5 1020.6 1020.5 0.0
 
Date/Time
EST
Temp
°C
App
Temp
°C
Dew
Point
Rel
Hum
%
Delta-T
°C
Wind Press
QNH
hPa
Press
MSL
hPa
Rain
since 9 am
mm
Dir
 
Spd
km/h
Gust
km/h
Spd
kts
Gust
kts
30/11:30pm 15.0 12.6 5.2 52 4.7 N 7 9 4 5 1020.8 - 0.0
30/11:00pm 15.6 13.3 5.5 51 4.9 N 7 9 4 5 1020.7 - 0.0
30/10:30pm 15.7 14.3 5.3 50 5.0 NNE 2 6 1 3 1020.6 - 0.0
30/10:00pm 15.8 13.1 5.4 50 5.0 NE 9 11 5 6 1020.6 - 0.0
30/09:30pm 15.4 12.4 3.9 46 5.4 ENE 9 11 5 6 1020.6 - 0.0
30/09:00pm 16.7 14.2 4.7 45 5.7 NE 7 11 4 6 1020.4 1020.2 0.0
30/08:30pm 17.2 14.9 5.5 46 5.7 ENE 7 9 4 5 1020.1 - 0.0
30/08:00pm 17.6 14.8 5.2 44 6.0 E 9 11 5 6 1019.8 - 0.0
30/07:30pm 18.0 15.1 4.9 42 6.3 E 9 11 5 6 1019.9 - 0.0
30/07:00pm 18.5 15.6 4.7 40 6.7 E 9 11 5 6 1019.7 - 0.0
30/06:30pm 19.5 16.6 4.8 38 7.2 E 9 11 5 6 1019.3 - 0.0
30/06:00pm 20.7 18.4 5.5 37 7.6 E 7 11 4 6 1018.9 1018.8 0.0
30/05:30pm 23.2 20.1 5.6 32 9.0 E 11 17 6 9 1018.7 - 0.0
30/05:00pm 24.9 21.9 6.1 30 9.8 E 11 17 6 9 1018.5 - 0.0
30/04:30pm 25.4 21.9 5.6 28 10.2 NE 13 24 7 13 1018.5 - 0.0
30/04:00pm 25.7 22.3 5.8 28 10.3 ENE 13 22 7 12 1018.3 - 0.0
30/03:30pm 26.0 22.6 6.1 28 10.4 NNE 13 19 7 10 1018.3 - 0.0
30/03:00pm 25.9 21.8 6.0 28 10.3 E 17 22 9 12 1018.5 1018.4 0.0
30/02:30pm 25.4 21.4 6.6 30 9.9 ENE 17 26 9 14 1018.8 - 0.0
30/02:00pm 25.4 21.6 7.5 32 9.5 E 17 26 9 14 1019.4 - 0.0
30/01:30pm 24.6 20.6 6.8 32 9.3 NE 17 24 9 13 1019.9 - 0.0
30/01:00pm 24.3 21.0 6.6 32 9.2 E 13 20 7 11 1020.7 - 0.0
30/12:30pm 23.8 20.8 6.1 32 9.1 ENE 11 22 6 12 1021.4 - 0.0
30/12:00pm 22.8 20.1 5.7 33 8.7 ESE 9 15 5 8 1022.2 1022.1 0.0
30/11:30am 22.7 19.7 6.0 34 8.5 E 11 15 6 8 1022.8 - 0.0
30/11:00am 21.8 19.7 5.7 35 8.1 SE 6 13 3 7 1023.3 - 0.0
30/10:30am 21.1 19.0 5.9 37 7.7 WSW 6 9 3 5 1023.9 - 0.0
30/10:00am 20.0 17.9 6.7 42 6.8 E 7 11 4 6 1024.1 - 0.0
30/09:30am 18.6 16.4 8.0 50 5.5 ESE 9 11 5 6 1024.3 - 0.0
30/09:00am 16.6 14.2 8.6 59 4.1 ESE 11 13 6 7 1024.2 1024.1 0.0
30/08:30am 15.2 12.8 8.7 65 3.3 ESE 11 13 6 7 1024.2 - 0.0
30/08:00am 13.8 11.6 9.3 74 2.3 ESE 11 13 6 7 1023.9 - 0.0
30/07:30am 10.5 8.3 7.7 83 1.4 SSE 9 11 5 6 1023.6 - 0.0
30/07:00am 8.9 6.7 6.0 82 1.3 SSW 7 7 4 4 1023.1 - 0.0
30/06:30am 9.6 7.7 6.7 82 1.4 SSW 6 7 3 4 1022.7 - 0.0
30/06:00am 10.0 9.3 7.1 82 1.4 CALM 0 0 0 0 1022.2 1022.1 0.0
30/05:30am 9.9 8.8 6.8 81 1.5 SW 2 6 1 3 1021.8 - 0.0
30/05:00am 9.8 7.9 6.9 82 1.4 SSE 6 7 3 4 1021.5 - 0.0
30/04:30am 10.1 7.7 6.8 80 1.6 SSE 9 11 5 6 1021.3 - 0.0
30/04:00am 10.1 7.3 7.0 81 1.5 SSE 11 13 6 7 1021.2 - 0.0
30/03:30am 10.3 8.2 6.8 79 1.7 S 7 9 4 5 1021.1 - 0.0
30/03:00am 10.5 8.5 7.2 80 1.6 SE 7 9 4 5 1021.1 1021.0 0.0
30/02:30am 10.1 8.1 6.1 76 1.9 ESE 6 9 3 5 1021.2 - 0.0
30/02:00am 11.7 11.0 7.0 73 2.3 CALM 0 0 0 0 1020.9 - 0.0
30/01:30am 13.0 11.2 8.1 72 2.4 NNE 7 7 4 4 1020.9 - 0.0
30/01:00am 12.2 10.2 6.9 70 2.6 E 7 7 4 4 1021.1 - 0.0
30/12:30am 13.0 11.2 7.0 67 2.9 ENE 6 7 3 4 1021.2 - 0.0
30/12:00am 14.5 12.5 7.1 61 3.6 NE 7 9 4 5 1021.2 1021.1 0.0
 
Date/Time
EST
Temp
°C
App
Temp
°C
Dew
Point
Rel
Hum
%
Delta-T
°C
Wind Press
QNH
hPa
Press
MSL
hPa
Rain
since 9 am
mm
Dir
 
Spd
km/h
Gust
km/h
Spd
kts
Gust
kts
29/11:30pm 14.6 12.5 6.7 59 3.9 NNE 7 9 4 5 1021.3 - 0.0
29/11:00pm 14.6 11.2 5.7 55 4.3 NE 13 15 7 8 1021.4 - 0.0
29/10:30pm 15.0 11.6 6.0 55 4.4 NE 13 20 7 11 1021.3 - 0.0
29/10:00pm 13.6 11.2 5.3 57 3.9 NE 7 9 4 5 1021.3 - 0.0
29/09:30pm 14.6 12.2 5.4 54 4.4 NE 7 9 4 5 1021.4 - 0.0
29/09:00pm 16.2 15.1 5.2 48 5.3 CALM 0 0 0 0 1021.3 1021.2 0.0
29/08:30pm 17.6 15.7 4.9 43 6.1 E 4 6 2 3 1021.2 - 0.0
29/08:00pm 18.0 16.2 3.5 38 6.8 E 2 7 1 4 1021.1 - 0.0
29/07:30pm 20.6 18.5 5.8 38 7.4 ESE 6 7 3 4 1020.9 - 0.0
29/07:00pm 19.7 17.0 5.4 39 7.1 ESE 9 11 5 6 1020.7 - 0.0
29/06:30pm 19.5 16.4 5.6 40 6.9 ESE 11 13 6 7 1020.3 - 0.0
29/06:00pm 21.2 18.5 5.5 36 7.8 E 9 11 5 6 1019.9 1019.7 0.0

Other Formats:

Comma delimited format used in spreadsheet applications
http://www.bom.gov.au/fwo/IDQ60801/IDQ60801.94363.axf

JavaScript Object Notation format (JSON) in row-major order
http://www.bom.gov.au/fwo/IDQ60801/IDQ60801.94363.json